sensor_id;sensor_type;location;lat;lon;timestamp;temperature;humidity
44731;DHT22;30458;47.448;19.032;2022-09-13T00:09:58;15.70;92.90
44731;DHT22;30458;47.448;19.032;2022-09-13T00:20:04;15.60;93.00
44731;DHT22;30458;47.448;19.032;2022-09-13T00:30:07;15.40;93.40
44731;DHT22;30458;47.448;19.032;2022-09-13T00:40:10;15.20;93.50
44731;DHT22;30458;47.448;19.032;2022-09-13T01:00:24;14.50;94.60
44731;DHT22;30458;47.448;19.032;2022-09-13T01:10:25;14.50;94.60
44731;DHT22;30458;47.448;19.032;2022-09-13T01:41:41;14.20;95.20
44731;DHT22;30458;47.448;19.032;2022-09-13T02:02:30;13.90;95.50
44731;DHT22;30458;47.448;19.032;2022-09-13T02:12:36;13.40;96.40
44731;DHT22;30458;47.448;19.032;2022-09-13T02:22:44;13.50;96.10
44731;DHT22;30458;47.448;19.032;2022-09-13T02:32:54;13.40;96.20
44731;DHT22;30458;47.448;19.032;2022-09-13T02:43:04;13.60;95.80
44731;DHT22;30458;47.448;19.032;2022-09-13T03:03:21;13.30;95.60
44731;DHT22;30458;47.448;19.032;2022-09-13T03:13:27;13.40;95.80
44731;DHT22;30458;47.448;19.032;2022-09-13T03:23:42;13.20;95.80
44731;DHT22;30458;47.448;19.032;2022-09-13T03:43:58;12.80;96.30
44731;DHT22;30458;47.448;19.032;2022-09-13T03:54:05;12.90;96.30
44731;DHT22;30458;47.448;19.032;2022-09-13T04:04:10;13.00;96.00
44731;DHT22;30458;47.448;19.032;2022-09-13T04:14:10;13.00;96.00
44731;DHT22;30458;47.448;19.032;2022-09-13T04:24:11;13.20;95.70
44731;DHT22;30458;47.448;19.032;2022-09-13T04:34:15;13.00;95.80
44731;DHT22;30458;47.448;19.032;2022-09-13T04:44:17;13.00;96.00
44731;DHT22;30458;47.448;19.032;2022-09-13T04:54:18;13.80;95.40
44731;DHT22;30458;47.448;19.032;2022-09-13T05:04:21;15.20;93.70
44731;DHT22;30458;47.448;19.032;2022-09-13T05:14:22;15.90;92.20
44731;DHT22;30458;47.448;19.032;2022-09-13T05:24:25;15.90;91.90
44731;DHT22;30458;47.448;19.032;2022-09-13T05:34:31;16.40;91.80
44731;DHT22;30458;47.448;19.032;2022-09-13T05:44:32;17.40;91.00
44731;DHT22;30458;47.448;19.032;2022-09-13T05:54:35;19.00;88.20
44731;DHT22;30458;47.448;19.032;2022-09-13T06:04:40;20.20;85.90
44731;DHT22;30458;47.448;19.032;2022-09-13T06:14:40;21.40;83.30
44731;DHT22;30458;47.448;19.032;2022-09-13T06:24:42;22.60;81.20
44731;DHT22;30458;47.448;19.032;2022-09-13T06:34:42;23.70;78.80
44731;DHT22;30458;47.448;19.032;2022-09-13T06:44:43;24.70;76.60
44731;DHT22;30458;47.448;19.032;2022-09-13T06:54:48;25.60;74.10
44731;DHT22;30458;47.448;19.032;2022-09-13T07:04:51;26.30;70.60
44731;DHT22;30458;47.448;19.032;2022-09-13T07:14:54;26.90;69.20
44731;DHT22;30458;47.448;19.032;2022-09-13T07:24:57;26.50;68.50
44731;DHT22;30458;47.448;19.032;2022-09-13T07:34:59;26.50;68.10
44731;DHT22;30458;47.448;19.032;2022-09-13T07:45:00;25.40;67.60
44731;DHT22;30458;47.448;19.032;2022-09-13T07:55:01;24.20;71.40
44731;DHT22;30458;47.448;19.032;2022-09-13T08:05:02;21.30;76.50
44731;DHT22;30458;47.448;19.032;2022-09-13T08:15:05;23.50;75.10
44731;DHT22;30458;47.448;19.032;2022-09-13T08:25:07;26.00;71.10
44731;DHT22;30458;47.448;19.032;2022-09-13T08:35:12;26.60;69.10
44731;DHT22;30458;47.448;19.032;2022-09-13T08:45:15;25.40;70.80
44731;DHT22;30458;47.448;19.032;2022-09-13T09:05:46;22.90;74.10
44731;DHT22;30458;47.448;19.032;2022-09-13T09:15:51;22.90;74.00
44731;DHT22;30458;47.448;19.032;2022-09-13T09:26:04;22.50;75.00
44731;DHT22;30458;47.448;19.032;2022-09-13T09:46:25;20.90;76.50
44731;DHT22;30458;47.448;19.032;2022-09-13T09:56:32;21.20;77.20
44731;DHT22;30458;47.448;19.032;2022-09-13T10:06:36;21.00;78.10
44731;DHT22;30458;47.448;19.032;2022-09-13T10:16:39;21.00;76.80
44731;DHT22;30458;47.448;19.032;2022-09-13T10:26:40;21.60;76.50
44731;DHT22;30458;47.448;19.032;2022-09-13T10:36:55;21.20;77.20
44731;DHT22;30458;47.448;19.032;2022-09-13T10:47:03;21.70;77.90
44731;DHT22;30458;47.448;19.032;2022-09-13T11:18:12;22.30;75.80
44731;DHT22;30458;47.448;19.032;2022-09-13T11:28:51;22.30;75.50
44731;DHT22;30458;47.448;19.032;2022-09-13T12:10:03;22.30;76.30
44731;DHT22;30458;47.448;19.032;2022-09-13T12:20:14;22.40;75.80
44731;DHT22;30458;47.448;19.032;2022-09-13T12:30:21;22.60;74.90
44731;DHT22;30458;47.448;19.032;2022-09-13T12:40:50;22.70;75.10
44731;DHT22;30458;47.448;19.032;2022-09-13T12:51:00;22.80;75.10
44731;DHT22;30458;47.448;19.032;2022-09-13T13:01:19;22.80;76.30
44731;DHT22;30458;47.448;19.032;2022-09-13T13:11:26;22.70;75.60
44731;DHT22;30458;47.448;19.032;2022-09-13T13:21:29;22.60;76.50
44731;DHT22;30458;47.448;19.032;2022-09-13T13:31:37;22.60;77.10
44731;DHT22;30458;47.448;19.032;2022-09-13T13:41:59;22.70;76.70
44731;DHT22;30458;47.448;19.032;2022-09-13T14:02:11;22.80;76.50
44731;DHT22;30458;47.448;19.032;2022-09-13T14:12:35;22.70;77.40
44731;DHT22;30458;47.448;19.032;2022-09-13T14:22:41;22.60;77.00
44731;DHT22;30458;47.448;19.032;2022-09-13T14:32:44;22.50;77.80
44731;DHT22;30458;47.448;19.032;2022-09-13T14:42:49;22.60;77.70
44731;DHT22;30458;47.448;19.032;2022-09-13T14:52:56;22.70;78.20
44731;DHT22;30458;47.448;19.032;2022-09-13T15:03:11;22.70;77.50
44731;DHT22;30458;47.448;19.032;2022-09-13T15:13:14;22.70;77.30
44731;DHT22;30458;47.448;19.032;2022-09-13T15:23:17;22.60;78.00
44731;DHT22;30458;47.448;19.032;2022-09-13T15:33:24;22.60;77.80
44731;DHT22;30458;47.448;19.032;2022-09-13T15:43:25;22.40;77.70
44731;DHT22;30458;47.448;19.032;2022-09-13T15:53:26;22.30;78.70
44731;DHT22;30458;47.448;19.032;2022-09-13T16:03:27;22.30;79.80
44731;DHT22;30458;47.448;19.032;2022-09-13T16:13:32;22.30;80.10
44731;DHT22;30458;47.448;19.032;2022-09-13T16:23:32;22.30;79.70
44731;DHT22;30458;47.448;19.032;2022-09-13T16:33:33;22.20;79.80
44731;DHT22;30458;47.448;19.032;2022-09-13T16:43:36;22.20;80.30
44731;DHT22;30458;47.448;19.032;2022-09-13T16:53:40;22.20;81.70
44731;DHT22;30458;47.448;19.032;2022-09-13T17:03:41;22.10;83.00
44731;DHT22;30458;47.448;19.032;2022-09-13T17:13:42;21.90;84.60
44731;DHT22;30458;47.448;19.032;2022-09-13T17:23:48;21.80;84.90
44731;DHT22;30458;47.448;19.032;2022-09-13T17:33:52;21.70;86.90
44731;DHT22;30458;47.448;19.032;2022-09-13T17:43:53;21.40;87.70
44731;DHT22;30458;47.448;19.032;2022-09-13T17:53:56;21.30;88.70
44731;DHT22;30458;47.448;19.032;2022-09-13T18:04:03;21.10;88.10
44731;DHT22;30458;47.448;19.032;2022-09-13T18:14:04;21.00;86.50
44731;DHT22;30458;47.448;19.032;2022-09-13T18:24:05;20.90;86.30
44731;DHT22;30458;47.448;19.032;2022-09-13T18:34:09;20.80;89.30
44731;DHT22;30458;47.448;19.032;2022-09-13T18:44:15;20.60;88.60
44731;DHT22;30458;47.448;19.032;2022-09-13T18:54:18;20.50;90.20
44731;DHT22;30458;47.448;19.032;2022-09-13T19:04:22;20.40;90.30
44731;DHT22;30458;47.448;19.032;2022-09-13T19:14:25;20.30;90.50
44731;DHT22;30458;47.448;19.032;2022-09-13T19:24:27;20.30;90.10
44731;DHT22;30458;47.448;19.032;2022-09-13T19:34:28;20.30;90.80
44731;DHT22;30458;47.448;19.032;2022-09-13T19:44:31;20.30;90.90
44731;DHT22;30458;47.448;19.032;2022-09-13T19:54:31;20.10;91.30
44731;DHT22;30458;47.448;19.032;2022-09-13T20:04:35;20.00;91.20
44731;DHT22;30458;47.448;19.032;2022-09-13T20:14:36;19.90;92.60
44731;DHT22;30458;47.448;19.032;2022-09-13T20:24:38;19.90;92.30
44731;DHT22;30458;47.448;19.032;2022-09-13T20:34:41;19.90;92.40
44731;DHT22;30458;47.448;19.032;2022-09-13T20:44:42;19.70;92.80
44731;DHT22;30458;47.448;19.032;2022-09-13T20:54:45;19.80;93.20
44731;DHT22;30458;47.448;19.032;2022-09-13T21:04:49;19.80;92.60
44731;DHT22;30458;47.448;19.032;2022-09-13T21:14:53;19.80;92.90
44731;DHT22;30458;47.448;19.032;2022-09-13T21:24:56;19.70;92.70
44731;DHT22;30458;47.448;19.032;2022-09-13T21:34:57;19.80;92.80
44731;DHT22;30458;47.448;19.032;2022-09-13T21:44:59;19.60;93.50
44731;DHT22;30458;47.448;19.032;2022-09-13T21:55:05;19.70;93.60
44731;DHT22;30458;47.448;19.032;2022-09-13T22:05:06;19.70;93.10
44731;DHT22;30458;47.448;19.032;2022-09-13T22:15:10;19.70;93.70
44731;DHT22;30458;47.448;19.032;2022-09-13T22:25:11;19.70;93.70
44731;DHT22;30458;47.448;19.032;2022-09-13T22:35:11;19.60;94.00
44731;DHT22;30458;47.448;19.032;2022-09-13T22:45:12;19.50;94.20
44731;DHT22;30458;47.448;19.032;2022-09-13T22:55:13;19.30;94.90
44731;DHT22;30458;47.448;19.032;2022-09-13T23:05:17;19.30;94.90
44731;DHT22;30458;47.448;19.032;2022-09-13T23:15:18;19.10;95.10
44731;DHT22;30458;47.448;19.032;2022-09-13T23:25:21;19.00;95.20
44731;DHT22;30458;47.448;19.032;2022-09-13T23:35:24;18.90;95.40
44731;DHT22;30458;47.448;19.032;2022-09-13T23:45:27;18.60;95.70
44731;DHT22;30458;47.448;19.032;2022-09-13T23:55:30;18.50;95.90
